Terminal Aerodrome Forecast
Issued by NWS Melbourne, FL

Home | Current Version | Previous Version | Text Only | Print | Product List | Glossary On
Versions: 1 2 3 4 5 6 7 8 9 10 11 12 13 14 15 16 17 18 19 20
000
FTUS42 KMLB 281329 AAB
TAFMLB
TAF AMD
KMLB 281329Z 2813/0112 06012KT P6SM -RA BKN015 OVC030
     FM281500 07014G22KT P6SM VCSH SCT015 BKN025 OVC050
     FM010100 07012KT P6SM VCSH SCT015 BKN020 OVC040=

USA.gov is the U.S. government's official web portal to all federal, state and local government web resources and services.